Time;durP1;ratioP1;P1;durP2;ratioP2;P2;SDS_P1;SDS_P2;PMS_P1;PMS_P2;Temp;Humidity;BMP_temperature;BMP_pressure;BME280_temperature;BME280_humidity;BME280_pressure;Samples;Min_cycle;Max_cycle;Signal;HPM_P1;HPM_P2
2023/07/29 00:01:51;;;;;;;2.83;0.80;;;19.00;99.90;;;;;;5038744;28;20470;-75
2023/07/29 00:04:17;;;;;;;3.58;0.60;;;19.00;99.90;;;;;;5038142;28;20105;-75
2023/07/29 00:06:43;;;;;;;1.83;0.70;;;18.90;99.90;;;;;;5055968;28;20490;-76
2023/07/29 00:09:08;;;;;;;2.47;0.77;;;19.00;99.90;;;;;;5038170;28;20468;-77
2023/07/29 00:11:34;;;;;;;0.90;0.65;;;19.00;99.90;;;;;;5055936;28;20519;-75
2023/07/29 00:14:01;;;;;;;4.70;0.70;;;19.00;99.90;;;;;;5055877;28;20079;-75
2023/07/29 00:16:26;;;;;;;0.75;0.47;;;18.90;99.90;;;;;;5055684;28;20088;-76
2023/07/29 00:18:52;;;;;;;2.63;0.70;;;18.90;99.90;;;;;;5055942;28;20454;-75
2023/07/29 00:21:18;;;;;;;3.85;0.52;;;18.90;99.90;;;;;;5037919;28;20462;-76
2023/07/29 00:23:43;;;;;;;1.05;0.40;;;18.90;99.90;;;;;;5038174;28;20119;-76
2023/07/29 00:26:09;;;;;;;3.55;0.93;;;18.90;99.90;;;;;;5038154;28;20044;-77
2023/07/29 00:28:34;;;;;;;2.10;0.50;;;19.00;99.90;;;;;;5055088;28;20473;-76
2023/07/29 00:31:00;;;;;;;4.07;0.70;;;18.90;99.90;;;;;;5056108;28;20025;-75
2023/07/29 00:33:25;;;;;;;4.47;0.50;;;18.90;99.90;;;;;;5037236;28;20052;-76
2023/07/29 00:35:51;;;;;;;2.55;0.70;;;18.90;99.90;;;;;;5038052;28;20381;-75
2023/07/29 00:38:17;;;;;;;2.17;0.68;;;18.90;99.90;;;;;;5037269;28;20025;-75
2023/07/29 00:40:43;;;;;;;4.22;0.70;;;18.90;99.90;;;;;;5037102;28;20025;-76
2023/07/29 00:43:08;;;;;;;0.82;0.63;;;18.90;99.90;;;;;;5037713;28;20029;-76
2023/07/29 00:45:34;;;;;;;2.00;0.65;;;18.90;99.90;;;;;;5037505;28;20033;-76
2023/07/29 00:48:01;;;;;;;5.07;0.60;;;18.90;99.90;;;;;;5055487;28;20477;-76
2023/07/29 00:50:27;;;;;;;0.77;0.50;;;18.90;99.90;;;;;;5055199;28;20370;-75
2023/07/29 00:52:54;;;;;;;2.13;0.68;;;18.90;99.90;;;;;;5037558;28;20029;-75
2023/07/29 00:55:20;;;;;;;0.75;0.50;;;18.90;99.90;;;;;;5054693;28;20029;-76
2023/07/29 00:57:48;;;;;;;6.53;0.80;;;18.90;99.90;;;;;;5055334;28;20091;-76
2023/07/29 01:00:15;;;;;;;4.45;0.70;;;18.90;99.90;;;;;;5037312;28;20052;-78
2023/07/29 01:02:44;;;;;;;3.35;0.63;;;18.90;99.90;;;;;;5037380;28;20021;-76
2023/07/29 01:05:13;;;;;;;5.00;0.80;;;18.90;99.90;;;;;;5037333;28;20078;-76
2023/07/29 01:08:01;;;;;;;3.38;1.10;;;18.90;99.90;;;;;;5037038;28;20033;-76
2023/07/29 01:10:48;;;;;;;3.08;0.65;;;18.90;99.90;;;;;;5036815;28;20033;-75
2023/07/29 01:13:32;;;;;;;2.58;0.80;;;18.90;99.90;;;;;;5036891;28;20032;-79
2023/07/29 01:16:09;;;;;;;4.20;0.80;;;18.80;99.90;;;;;;5054711;28;20056;-76
2023/07/29 01:18:38;;;;;;;2.80;0.60;;;18.80;99.90;;;;;;5054066;28;20168;-76
2023/07/29 01:21:07;;;;;;;6.28;0.70;;;18.70;99.90;;;;;;5036825;28;20456;-75
2023/07/29 01:23:34;;;;;;;0.57;0.50;;;18.70;99.90;;;;;;5036080;28;20792;-76
2023/07/29 01:26:01;;;;;;;2.88;0.98;;;18.70;99.90;;;;;;5036640;28;20035;-76
2023/07/29 01:28:27;;;;;;;2.78;0.63;;;18.70;99.90;;;;;;5054051;28;20102;-76
2023/07/29 01:31:07;;;;;;;2.15;0.70;;;18.60;99.90;;;;;;5054453;28;20025;-76
2023/07/29 01:33:45;;;;;;;0.82;0.77;;;18.60;99.90;;;;;;5035750;28;20048;-76
2023/07/29 01:36:18;;;;;;;2.33;0.88;;;18.50;99.90;;;;;;5054227;28;20029;-76
2023/07/29 01:38:45;;;;;;;1.63;0.70;;;18.50;99.90;;;;;;5054759;28;20029;-76
2023/07/29 01:41:11;;;;;;;1.05;0.63;;;18.50;99.90;;;;;;5036947;28;20057;-76
2023/07/29 01:43:43;;;;;;;2.20;0.80;;;18.50;99.90;;;;;;5036014;28;20100;-76
2023/07/29 01:46:14;;;;;;;3.03;0.90;;;18.50;99.90;;;;;;5036587;28;20190;-76
2023/07/29 01:48:39;;;;;;;3.40;0.50;;;18.50;99.90;;;;;;5053908;28;20025;-75
2023/07/29 01:51:06;;;;;;;5.13;0.70;;;18.50;99.90;;;;;;5054361;28;20112;-76
2023/07/29 01:53:32;;;;;;;3.00;0.70;;;18.60;99.90;;;;;;5052904;28;20381;-76
2023/07/29 01:55:57;;;;;;;0.70;0.50;;;18.50;99.90;;;;;;5035986;28;20470;-76
2023/07/29 01:58:23;;;;;;;1.48;0.60;;;18.60;99.90;;;;;;5053028;28;20036;-75
2023/07/29 02:00:49;;;;;;;3.33;0.60;;;18.60;99.90;;;;;;5035748;28;20135;-76
2023/07/29 02:03:15;;;;;;;2.55;0.75;;;18.60;99.90;;;;;;5036136;28;20060;-77
2023/07/29 02:05:42;;;;;;;1.13;0.60;;;18.60;99.90;;;;;;5035970;28;20116;-75
2023/07/29 02:08:07;;;;;;;2.25;0.80;;;18.50;99.90;;;;;;5036058;28;20068;-75
2023/07/29 02:10:33;;;;;;;0.90;0.57;;;18.50;99.90;;;;;;5035383;28;20377;-76
2023/07/29 02:12:58;;;;;;;2.50;0.60;;;18.50;99.90;;;;;;5053640;28;20462;-76
2023/07/29 02:15:24;;;;;;;1.67;0.70;;;18.60;99.90;;;;;;5053210;28;20021;-76
2023/07/29 02:17:50;;;;;;;1.88;0.60;;;18.60;99.90;;;;;;5053694;28;20063;-75
2023/07/29 02:20:16;;;;;;;0.75;0.50;;;18.50;99.90;;;;;;5035673;28;20057;-77
2023/07/29 02:22:42;;;;;;;0.73;0.60;;;18.50;99.90;;;;;;5053192;28;20056;-76
2023/07/29 02:25:07;;;;;;;2.53;0.60;;;18.50;99.90;;;;;;5053302;28;20424;-76
2023/07/29 02:27:33;;;;;;;1.63;0.75;;;18.60;99.90;;;;;;5035207;28;20041;-76
2023/07/29 02:29:59;;;;;;;2.22;0.80;;;18.60;99.90;;;;;;5035263;28;20375;-76
2023/07/29 02:32:24;;;;;;;1.30;0.60;;;18.60;99.90;;;;;;5053372;28;20056;-76
2023/07/29 02:34:50;;;;;;;2.05;0.70;;;18.60;99.90;;;;;;5035169;28;20029;-76
2023/07/29 02:37:16;;;;;;;2.05;0.70;;;18.70;99.90;;;;;;5035972;28;20025;-76
2023/07/29 02:39:42;;;;;;;2.67;0.80;;;18.70;99.90;;;;;;5035364;28;20025;-76
2023/07/29 02:42:07;;;;;;;0.63;0.47;;;18.70;99.90;;;;;;5036519;28;20430;-76
2023/07/29 02:44:33;;;;;;;4.05;0.80;;;18.70;99.90;;;;;;5053082;28;20119;-76
2023/07/29 02:46:59;;;;;;;3.10;0.68;;;18.70;99.90;;;;;;5035988;28;20029;-77
2023/07/29 02:49:24;;;;;;;1.75;0.85;;;18.70;99.90;;;;;;5035256;28;20017;-77
2023/07/29 02:51:50;;;;;;;2.60;0.82;;;18.70;99.90;;;;;;5053380;28;20033;-76
2023/07/29 02:54:15;;;;;;;1.80;0.70;;;18.70;99.90;;;;;;5040406;28;20082;-76
2023/07/29 02:56:41;;;;;;;5.30;0.93;;;18.70;99.90;;;;;;5055110;28;20781;-77
2023/07/29 02:59:06;;;;;;;1.42;0.70;;;18.70;99.90;;;;;;5055003;28;20052;-76
2023/07/29 03:01:32;;;;;;;1.48;0.95;;;18.70;99.90;;;;;;5055033;28;20074;-76
2023/07/29 03:03:58;;;;;;;1.10;0.70;;;18.70;99.90;;;;;;5075266;28;20343;-76
2023/07/29 03:06:24;;;;;;;1.58;0.93;;;18.70;99.90;;;;;;5077415;28;20047;-76
2023/07/29 03:08:49;;;;;;;3.97;1.33;;;18.70;99.90;;;;;;5059474;28;20129;-77
2023/07/29 03:11:16;;;;;;;2.95;0.90;;;18.60;99.90;;;;;;5059878;28;20051;-76
2023/07/29 03:13:42;;;;;;;3.03;0.82;;;18.60;99.90;;;;;;5059269;28;20032;-76
2023/07/29 03:16:11;;;;;;;1.98;0.57;;;18.60;99.90;;;;;;5059757;28;20162;-76
2023/07/29 03:18:37;;;;;;;2.17;0.73;;;18.60;99.90;;;;;;5059047;28;20116;-76
2023/07/29 03:21:03;;;;;;;1.27;0.82;;;18.70;99.90;;;;;;5059629;28;20020;-76
2023/07/29 03:23:30;;;;;;;0.60;0.60;;;18.60;99.90;;;;;;5059121;28;20029;-76
2023/07/29 03:25:58;;;;;;;2.15;0.70;;;18.60;99.90;;;;;;5058754;28;20032;-76
2023/07/29 03:28:28;;;;;;;1.35;0.57;;;18.60;99.90;;;;;;5058327;28;20043;-79
2023/07/29 03:30:58;;;;;;;3.72;0.60;;;18.60;99.90;;;;;;5076887;28;20503;-76
2023/07/29 03:33:25;;;;;;;5.15;0.85;;;18.50;99.90;;;;;;5076300;28;20409;-79
2023/07/29 03:35:50;;;;;;;1.08;0.60;;;18.50;99.90;;;;;;5076850;28;20029;-76
2023/07/29 03:38:16;;;;;;;2.25;0.90;;;18.50;99.90;;;;;;5058659;28;20024;-76
2023/07/29 03:40:42;;;;;;;2.30;0.95;;;18.60;99.90;;;;;;5058317;28;20112;-76
2023/07/29 03:43:08;;;;;;;6.43;0.85;;;18.60;99.90;;;;;;5076372;28;20381;-76
2023/07/29 03:45:34;;;;;;;2.20;0.80;;;18.60;99.90;;;;;;5076074;28;20028;-76
2023/07/29 03:48:00;;;;;;;5.32;1.00;;;18.70;99.90;;;;;;5058683;28;20032;-76
2023/07/29 03:50:26;;;;;;;1.63;0.73;;;18.70;99.90;;;;;;5058176;28;20423;-77
2023/07/29 03:52:52;;;;;;;2.75;0.88;;;18.60;99.90;;;;;;5076354;28;20017;-76
2023/07/29 03:55:18;;;;;;;0.70;0.70;;;18.70;99.90;;;;;;5076176;28;20043;-76
2023/07/29 03:57:44;;;;;;;1.08;0.80;;;18.70;99.90;;;;;;5057744;28;20078;-76
2023/07/29 04:00:10;;;;;;;1.42;0.80;;;18.60;99.90;;;;;;5075783;28;20496;-75
2023/07/29 04:02:38;;;;;;;1.48;0.70;;;18.70;99.90;;;;;;5058014;28;20032;-76
2023/07/29 04:05:05;;;;;;;1.40;0.70;;;18.70;99.90;;;;;;5058692;28;20032;-76
2023/07/29 04:07:31;;;;;;;4.88;0.90;;;18.70;99.90;;;;;;5057824;28;20033;-76
2023/07/29 04:09:57;;;;;;;3.33;1.23;;;18.80;99.90;;;;;;5076199;28;20025;-76
2023/07/29 04:12:24;;;;;;;4.78;1.20;;;18.80;99.90;;;;;;5076485;28;20035;-77
2023/07/29 04:14:50;;;;;;;3.03;1.10;;;18.80;99.90;;;;;;5057111;28;20025;-76
2023/07/29 04:17:15;;;;;;;1.65;0.98;;;18.80;99.90;;;;;;5058629;28;20031;-77
2023/07/29 04:19:41;;;;;;;4.40;1.02;;;18.80;99.90;;;;;;5076125;28;20048;-77
2023/07/29 04:22:07;;;;;;;2.33;1.00;;;18.80;99.90;;;;;;5058309;28;20038;-77
2023/07/29 04:24:32;;;;;;;1.83;0.98;;;18.80;99.90;;;;;;5058187;28;20074;-77
2023/07/29 04:26:58;;;;;;;3.53;1.33;;;18.80;99.90;;;;;;5058301;28;20028;-77
2023/07/29 04:29:24;;;;;;;2.22;1.50;;;18.90;99.90;;;;;;5058509;28;20059;-77
2023/07/29 04:31:50;;;;;;;1.88;1.10;;;18.90;99.90;;;;;;5075672;28;20029;-76
2023/07/29 04:34:17;;;;;;;2.45;1.33;;;18.90;99.90;;;;;;5058332;28;20522;-76
2023/07/29 04:36:42;;;;;;;1.38;1.00;;;19.00;99.90;;;;;;5075276;28;20029;-77
2023/07/29 04:39:08;;;;;;;2.58;1.10;;;19.10;99.90;;;;;;5075945;28;20029;-76
2023/07/29 04:41:34;;;;;;;1.00;0.90;;;19.10;99.90;;;;;;5057599;28;20028;-77
2023/07/29 04:44:00;;;;;;;1.77;0.80;;;19.10;99.90;;;;;;5030843;28;20032;-77
2023/07/29 04:46:25;;;;;;;1.83;0.77;;;19.10;99.90;;;;;;5036818;28;20052;-78
2023/07/29 04:48:51;;;;;;;1.65;1.02;;;19.20;99.90;;;;;;5044426;28;20450;-77
2023/07/29 04:51:16;;;;;;;1.88;0.90;;;19.20;99.90;;;;;;5059388;28;20024;-77
2023/07/29 04:53:42;;;;;;;1.98;0.90;;;19.20;99.90;;;;;;5037207;28;20060;-77
2023/07/29 04:56:08;;;;;;;4.82;1.08;;;19.20;99.90;;;;;;5055045;28;20025;-77
2023/07/29 04:58:35;;;;;;;1.95;1.00;;;19.20;99.90;;;;;;5036688;28;20452;-78
2023/07/29 05:01:02;;;;;;;1.23;0.90;;;19.20;99.90;;;;;;5037357;28;20032;-78
2023/07/29 05:03:27;;;;;;;2.58;1.10;;;19.20;99.90;;;;;;5036971;28;20032;-78
2023/07/29 05:05:55;;;;;;;2.20;1.00;;;19.20;99.90;;;;;;5037478;28;20021;-76
2023/07/29 05:08:21;;;;;;;5.05;1.10;;;19.20;99.90;;;;;;5036828;28;20052;-77
2023/07/29 05:10:50;;;;;;;2.70;1.00;;;19.30;99.90;;;;;;5054327;28;20013;-77
2023/07/29 05:13:17;;;;;;;2.67;1.08;;;19.30;99.90;;;;;;5036501;28;20513;-78
2023/07/29 05:15:43;;;;;;;2.03;1.00;;;19.30;99.90;;;;;;5054254;28;20295;-78
2023/07/29 05:18:09;;;;;;;7.47;1.48;;;19.30;99.90;;;;;;5036473;28;20577;-76
2023/07/29 05:20:34;;;;;;;2.92;1.20;;;19.40;99.90;;;;;;5053593;28;20029;-77
2023/07/29 05:23:00;;;;;;;2.20;1.20;;;19.40;99.90;;;;;;5036744;28;20028;-77
2023/07/29 05:25:26;;;;;;;2.33;1.00;;;19.40;99.90;;;;;;5036571;28;20061;-77
2023/07/29 05:27:52;;;;;;;3.10;1.20;;;19.40;99.90;;;;;;5054616;28;20025;-77
2023/07/29 05:30:17;;;;;;;6.55;1.20;;;19.40;99.90;;;;;;5036241;28;20024;-76
2023/07/29 05:32:43;;;;;;;5.10;1.10;;;19.40;99.90;;;;;;5035554;28;20074;-76
2023/07/29 05:35:09;;;;;;;2.00;0.95;;;19.40;99.90;;;;;;5036217;28;20104;-77
2023/07/29 05:37:37;;;;;;;2.55;1.20;;;19.50;99.90;;;;;;5035097;28;20025;-77
2023/07/29 05:40:03;;;;;;;2.15;1.08;;;19.50;99.90;;;;;;5035687;28;20021;-76
2023/07/29 05:42:29;;;;;;;2.47;1.48;;;19.50;99.90;;;;;;5035080;28;20082;-78
2023/07/29 05:44:55;;;;;;;1.75;1.08;;;19.60;99.90;;;;;;5052357;28;20454;-76
2023/07/29 05:47:20;;;;;;;3.25;1.20;;;19.60;99.90;;;;;;5035441;28;20033;-77
2023/07/29 05:49:46;;;;;;;1.27;0.85;;;19.60;99.90;;;;;;5035167;28;20023;-77
2023/07/29 05:52:11;;;;;;;3.13;1.10;;;19.60;99.90;;;;;;5036399;28;20025;-77
2023/07/29 05:54:37;;;;;;;1.55;1.10;;;19.70;99.90;;;;;;5035065;28;20116;-76
2023/07/29 05:57:03;;;;;;;2.30;1.20;;;19.70;99.90;;;;;;5036135;28;20441;-77
2023/07/29 05:59:29;;;;;;;3.05;1.20;;;19.70;99.90;;;;;;5034759;28;20087;-77
2023/07/29 06:01:55;;;;;;;3.20;1.17;;;19.70;99.90;;;;;;5035820;28;20017;-78
2023/07/29 06:04:20;;;;;;;5.82;1.20;;;19.70;99.90;;;;;;5035191;28;20036;-76
2023/07/29 06:06:46;;;;;;;2.58;1.30;;;19.80;99.90;;;;;;5034309;28;20082;-77
2023/07/29 06:09:11;;;;;;;1.88;1.10;;;19.80;99.90;;;;;;5035070;28;20035;-78
2023/07/29 06:11:37;;;;;;;1.95;1.00;;;19.80;99.90;;;;;;5053091;28;20020;-77
2023/07/29 06:14:03;;;;;;;5.65;1.80;;;19.80;99.90;;;;;;5053222;28;20017;-77
2023/07/29 06:16:28;;;;;;;1.67;1.20;;;19.80;99.90;;;;;;5035432;28;20083;-77
2023/07/29 06:18:54;;;;;;;3.13;1.20;;;19.80;99.90;;;;;;5035362;28;20032;-76
2023/07/29 06:21:20;;;;;;;2.05;0.93;;;19.80;99.90;;;;;;5035733;28;20021;-76
2023/07/29 06:23:46;;;;;;;1.30;1.00;;;19.80;99.90;;;;;;5034862;28;20496;-77
2023/07/29 06:26:11;;;;;;;2.75;1.42;;;19.80;99.90;;;;;;5035101;28;20021;-77
2023/07/29 06:28:37;;;;;;;1.52;1.10;;;19.80;99.90;;;;;;5033838;28;20097;-76
2023/07/29 06:31:03;;;;;;;2.35;1.50;;;19.80;99.90;;;;;;5052937;28;20032;-77
2023/07/29 06:33:28;;;;;;;3.40;1.13;;;19.90;99.90;;;;;;5052297;28;20072;-77
2023/07/29 06:35:54;;;;;;;1.58;1.20;;;20.00;99.90;;;;;;5035461;28;20044;-76
2023/07/29 06:38:21;;;;;;;2.97;1.50;;;20.00;99.90;;;;;;5039883;28;20519;-76
2023/07/29 06:40:48;;;;;;;2.45;1.27;;;19.90;99.90;;;;;;5052294;28;20096;-76
2023/07/29 06:43:13;;;;;;;2.72;1.15;;;19.90;99.90;;;;;;5055037;28;20056;-76
2023/07/29 06:45:39;;;;;;;1.80;1.25;;;19.90;99.90;;;;;;5033409;28;20059;-77
2023/07/29 06:48:05;;;;;;;1.60;1.20;;;19.90;99.90;;;;;;5033006;28;20036;-76
2023/07/29 06:50:30;;;;;;;2.03;1.30;;;19.90;99.90;;;;;;5052107;28;20033;-77
2023/07/29 06:52:56;;;;;;;2.50;1.48;;;19.90;99.90;;;;;;5052971;28;20116;-76
2023/07/29 06:55:21;;;;;;;1.98;1.00;;;19.90;99.90;;;;;;5034949;28;20070;-77
2023/07/29 06:57:47;;;;;;;2.03;1.13;;;20.00;99.90;;;;;;5033809;28;20021;-77
2023/07/29 07:00:13;;;;;;;6.13;1.30;;;20.00;99.90;;;;;;5052774;28;20041;-76
2023/07/29 07:02:38;;;;;;;3.97;1.63;;;20.10;99.90;;;;;;5051971;28;20025;-76
2023/07/29 07:05:04;;;;;;;2.60;1.30;;;20.10;99.90;;;;;;5051992;28;20025;-77
2023/07/29 07:07:30;;;;;;;2.35;1.27;;;20.10;99.90;;;;;;5051155;28;20106;-77
2023/07/29 07:09:56;;;;;;;7.10;1.30;;;20.10;99.90;;;;;;5052189;28;20148;-75
2023/07/29 07:12:22;;;;;;;3.30;1.40;;;20.10;99.90;;;;;;5052473;28;20346;-75
2023/07/29 07:14:48;;;;;;;3.20;1.40;;;20.10;99.90;;;;;;5052802;28;20029;-75
2023/07/29 07:17:13;;;;;;;2.17;1.20;;;20.10;99.90;;;;;;5034963;28;20086;-76
2023/07/29 07:19:39;;;;;;;3.42;1.33;;;20.10;99.90;;;;;;5033688;28;20043;-76
2023/07/29 07:22:05;;;;;;;1.77;1.05;;;20.20;99.90;;;;;;5034079;28;20107;-76
2023/07/29 07:24:31;;;;;;;4.22;1.50;;;20.30;99.90;;;;;;5051606;28;20025;-76
2023/07/29 07:26:56;;;;;;;3.58;1.23;;;20.40;99.90;;;;;;5033971;28;20033;-76
2023/07/29 07:29:22;;;;;;;1.98;1.33;;;20.30;99.90;;;;;;5052282;28;20036;-76
2023/07/29 07:31:52;;;;;;;2.58;1.10;;;20.40;99.90;;;;;;5051933;28;20024;-76
2023/07/29 07:34:21;;;;;;;1.80;1.30;;;20.40;99.90;;;;;;5052564;28;20094;-76
2023/07/29 07:36:47;;;;;;;1.50;1.10;;;20.50;99.90;;;;;;5034507;28;20081;-76
2023/07/29 07:39:13;;;;;;;2.35;1.38;;;20.60;99.90;;;;;;5034493;28;20064;-76
2023/07/29 07:41:39;;;;;;;1.25;1.05;;;20.60;99.90;;;;;;5052012;28;20025;-76
2023/07/29 07:44:04;;;;;;;3.90;1.30;;;20.60;99.90;;;;;;5051916;28;20369;-76
2023/07/29 07:46:30;;;;;;;2.15;1.40;;;20.70;99.90;;;;;;5031905;28;20488;-77
2023/07/29 07:48:55;;;;;;;2.72;1.23;;;20.80;99.90;;;;;;5051884;28;20393;-76
2023/07/29 07:51:21;;;;;;;1.48;1.23;;;20.80;99.90;;;;;;5037999;28;20025;-78
2023/07/29 07:53:46;;;;;;;4.05;1.13;;;20.80;99.90;;;;;;5038029;28;20021;-76
2023/07/29 07:56:12;;;;;;;3.30;1.38;;;20.90;99.90;;;;;;5038351;28;20021;-76
2023/07/29 07:58:38;;;;;;;4.03;1.25;;;21.00;99.90;;;;;;5037051;28;20029;-76
2023/07/29 08:01:05;;;;;;;3.47;1.23;;;21.00;99.90;;;;;;5055510;28;20017;-77
2023/07/29 08:03:31;;;;;;;2.50;1.30;;;20.90;99.90;;;;;;5055312;28;20025;-78
2023/07/29 08:05:56;;;;;;;1.92;1.25;;;20.80;99.90;;;;;;5038431;28;20074;-78
2023/07/29 08:08:22;;;;;;;2.92;1.10;;;20.90;99.90;;;;;;5055668;28;20108;-78
2023/07/29 08:10:47;;;;;;;2.65;1.30;;;20.90;99.90;;;;;;5037440;28;20021;-78
2023/07/29 08:13:13;;;;;;;2.25;1.20;;;20.90;99.90;;;;;;5038238;28;20407;-78
2023/07/29 08:15:39;;;;;;;3.90;1.30;;;21.00;99.90;;;;;;5055267;28;20032;-78
2023/07/29 08:18:04;;;;;;;1.20;0.80;;;21.00;99.90;;;;;;5056330;28;20078;-77
2023/07/29 08:20:30;;;;;;;1.48;1.17;;;20.90;99.90;;;;;;5037286;28;20369;-79
2023/07/29 08:22:56;;;;;;;1.67;1.00;;;21.00;99.90;;;;;;5037982;28;20025;-78
2023/07/29 08:25:21;;;;;;;2.85;1.10;;;21.00;99.90;;;;;;5055413;28;20033;-79
2023/07/29 08:27:47;;;;;;;1.30;1.00;;;21.10;99.90;;;;;;5049491;28;20029;-78
2023/07/29 08:30:12;;;;;;;1.90;1.02;;;21.20;99.90;;;;;;5037450;28;20032;-78
2023/07/29 08:32:38;;;;;;;1.85;1.10;;;21.30;99.90;;;;;;5037705;28;20035;-78
2023/07/29 08:35:04;;;;;;;1.63;1.20;;;21.30;99.90;;;;;;5037648;28;20342;-78
2023/07/29 08:37:31;;;;;;;1.30;1.00;;;21.40;99.90;;;;;;5054791;28;20110;-79
2023/07/29 08:39:56;;;;;;;2.55;1.23;;;21.40;99.90;;;;;;5033553;28;20021;-77
2023/07/29 08:42:25;;;;;;;1.83;1.13;;;21.60;99.90;;;;;;5037574;28;20098;-80
2023/07/29 08:44:57;;;;;;;3.42;1.33;;;21.70;99.90;;;;;;5037495;28;20013;-77
2023/07/29 08:47:23;;;;;;;3.45;2.03;;;21.80;99.90;;;;;;5035427;28;20029;-77
2023/07/29 08:49:52;;;;;;;1.92;1.23;;;21.90;99.90;;;;;;5053434;28;20032;-79
2023/07/29 08:52:18;;;;;;;3.13;1.10;;;22.00;99.90;;;;;;5055015;28;20516;-78
2023/07/29 08:54:45;;;;;;;1.23;0.82;;;22.00;99.90;;;;;;5036553;28;20029;-79
2023/07/29 08:57:10;;;;;;;6.32;1.00;;;22.00;99.90;;;;;;5055293;28;20035;-79
2023/07/29 08:59:37;;;;;;;1.95;0.80;;;22.00;99.90;;;;;;5037545;28;20501;-81
2023/07/29 09:02:03;;;;;;;1.25;1.02;;;22.00;99.90;;;;;;5036386;28;20458;-81
2023/07/29 09:04:28;;;;;;;1.98;1.10;;;22.00;99.90;;;;;;5054807;28;20017;-78
2023/07/29 09:06:56;;;;;;;2.05;0.93;;;22.00;99.90;;;;;;5036297;28;20115;-77
2023/07/29 09:09:22;;;;;;;1.38;0.77;;;22.00;99.90;;;;;;5037113;28;20021;-80
2023/07/29 09:11:48;;;;;;;1.67;1.00;;;21.90;99.90;;;;;;5054505;28;20047;-78
2023/07/29 09:14:14;;;;;;;2.47;1.30;;;21.90;99.90;;;;;;5024770;28;20021;-78
2023/07/29 09:16:40;;;;;;;1.20;0.73;;;21.90;99.90;;;;;;5036665;28;20025;-78
2023/07/29 09:19:06;;;;;;;2.55;1.00;;;21.80;99.90;;;;;;5055382;28;20039;-80
2023/07/29 09:21:32;;;;;;;1.38;0.90;;;21.70;99.90;;;;;;5051841;28;20417;-78
2023/07/29 09:24:04;;;;;;;3.25;0.80;;;21.70;99.90;;;;;;5037668;28;20063;-81
2023/07/29 09:26:31;;;;;;;2.78;1.05;;;21.60;99.90;;;;;;5045904;28;20513;-81
2023/07/29 09:28:58;;;;;;;3.90;1.00;;;21.60;99.90;;;;;;5036528;28;20037;-77
2023/07/29 09:31:28;;;;;;;2.00;0.90;;;21.60;99.90;;;;;;5035759;28;20021;-83
2023/07/29 09:34:02;;;;;;;1.95;0.90;;;21.50;99.90;;;;;;5048423;28;20462;-76
2023/07/29 09:36:31;;;;;;;1.40;0.70;;;21.50;99.90;;;;;;5035180;28;20560;-76
2023/07/29 09:38:57;;;;;;;1.25;0.77;;;21.50;99.90;;;;;;5030816;28;20012;-75
2023/07/29 09:41:28;;;;;;;1.05;0.75;;;21.70;99.90;;;;;;5055100;28;20032;-75
2023/07/29 09:43:58;;;;;;;2.08;0.73;;;21.90;99.90;;;;;;5034429;28;20462;-76
2023/07/29 09:46:26;;;;;;;2.50;1.03;;;22.20;99.90;;;;;;5034806;28;20024;-81
2023/07/29 09:48:56;;;;;;;0.93;0.65;;;22.20;99.90;;;;;;5031870;28;20928;-75
2023/07/29 09:51:22;;;;;;;1.90;0.80;;;22.20;99.90;;;;;;5052118;28;20504;-75
2023/07/29 09:53:49;;;;;;;0.93;0.70;;;22.00;99.90;;;;;;5034135;28;20021;-75
2023/07/29 09:56:16;;;;;;;2.10;0.65;;;22.00;99.90;;;;;;5052412;28;20370;-75
2023/07/29 09:58:45;;;;;;;1.25;0.47;;;22.10;99.90;;;;;;5033646;28;20040;-76
2023/07/29 10:01:12;;;;;;;0.73;0.60;;;22.20;99.90;;;;;;5052726;28;20021;-75
2023/07/29 10:03:38;;;;;;;2.35;0.93;;;22.30;99.90;;;;;;5051247;28;20036;-76
2023/07/29 10:06:05;;;;;;;1.10;0.70;;;22.30;99.90;;;;;;5052387;28;20021;-76
2023/07/29 10:08:40;;;;;;;2.45;0.80;;;22.50;99.90;;;;;;5034464;28;20045;-76
2023/07/29 10:11:10;;;;;;;1.00;0.90;;;22.60;99.90;;;;;;5053248;28;20040;-75
2023/07/29 10:13:36;;;;;;;0.75;0.68;;;22.60;99.90;;;;;;5033884;28;20025;-76
2023/07/29 10:16:03;;;;;;;1.40;0.90;;;22.60;99.90;;;;;;5051418;28;20024;-75
2023/07/29 10:18:29;;;;;;;2.13;0.70;;;22.60;99.90;;;;;;5045370;28;20025;-75
2023/07/29 10:20:58;;;;;;;1.15;0.93;;;22.60;99.90;;;;;;5035059;28;20359;-75
2023/07/29 10:23:25;;;;;;;1.55;0.60;;;22.80;99.90;;;;;;5034418;28;20025;-78
2023/07/29 10:26:05;;;;;;;1.25;0.80;;;22.90;99.90;;;;;;5034214;28;20107;-75
2023/07/29 10:28:32;;;;;;;1.10;0.80;;;22.90;99.90;;;;;;5036952;28;20040;-75
2023/07/29 10:30:58;;;;;;;0.90;0.70;;;22.90;99.90;;;;;;5040307;28;20028;-76
2023/07/29 10:33:24;;;;;;;2.17;0.70;;;22.90;99.90;;;;;;5034147;28;20546;-80
2023/07/29 10:35:50;;;;;;;1.17;0.70;;;23.00;99.90;;;;;;5054153;28;20132;-75
2023/07/29 10:38:17;;;;;;;0.70;0.60;;;23.10;99.90;;;;;;5072970;28;20029;-75
2023/07/29 10:41:01;;;;;;;1.10;0.60;;;23.10;99.90;;;;;;5072109;28;20020;-75
2023/07/29 10:43:34;;;;;;;0.75;0.57;;;23.20;99.90;;;;;;5054085;28;20544;-80
2023/07/29 10:46:21;;;;;;;0.60;0.40;;;23.20;99.90;;;;;;5031142;28;20032;-76
2023/07/29 10:48:54;;;;;;;1.00;0.40;;;23.20;99.90;;;;;;5044159;28;20037;-75
2023/07/29 10:51:32;;;;;;;0.75;0.55;;;23.20;99.90;;;;;;5046575;28;20031;-76
2023/07/29 10:53:59;;;;;;;0.90;0.70;;;23.40;99.90;;;;;;5048649;28;20450;-75
2023/07/29 10:56:46;;;;;;;0.52;0.40;;;23.40;99.90;;;;;;5051471;28;20153;-78
2023/07/29 10:59:12;;;;;;;0.70;0.50;;;23.40;99.90;;;;;;5033614;28;20505;-75
2023/07/29 11:01:40;;;;;;;0.63;0.52;;;23.60;99.90;;;;;;5032225;28;20021;-76
2023/07/29 11:04:20;;;;;;;1.77;0.60;;;23.60;99.90;;;;;;5051517;28;20545;-75
2023/07/29 11:07:05;;;;;;;1.77;0.77;;;23.70;99.90;;;;;;5013075;28;20064;-76
2023/07/29 11:09:49;;;;;;;1.15;0.60;;;23.70;99.90;;;;;;5051108;28;20538;-77
2023/07/29 11:12:45;;;;;;;0.85;0.60;;;23.70;99.90;;;;;;5034159;28;20505;-76
2023/07/29 11:15:11;;;;;;;0.90;0.68;;;23.80;99.90;;;;;;5053016;28;20431;-80
2023/07/29 11:17:39;;;;;;;1.08;0.80;;;23.90;99.90;;;;;;5072467;28;20028;-76
2023/07/29 11:20:05;;;;;;;1.13;0.50;;;24.00;99.90;;;;;;5033141;28;20028;-79
2023/07/29 11:22:31;;;;;;;1.95;1.00;;;24.10;99.90;;;;;;5034193;28;20120;-78
2023/07/29 11:24:56;;;;;;;0.75;0.60;;;24.10;99.90;;;;;;5036719;28;20115;-76
2023/07/29 11:27:22;;;;;;;7.40;0.88;;;24.10;99.90;;;;;;5037188;28;20036;-80
2023/07/29 11:29:48;;;;;;;1.95;0.80;;;24.20;99.90;;;;;;5037032;28;20033;-76
2023/07/29 11:32:15;;;;;;;1.25;0.80;;;24.30;99.90;;;;;;5037681;28;20029;-76
2023/07/29 11:34:41;;;;;;;1.15;0.90;;;23.30;99.90;;;;;;5053770;28;20028;-77
2023/07/29 11:37:10;;;;;;;1.00;0.70;;;22.60;99.90;;;;;;5036914;28;20064;-77
2023/07/29 11:39:41;;;;;;;1.45;0.88;;;22.40;99.90;;;;;;5037772;28;20116;-74
2023/07/29 11:42:06;;;;;;;2.97;0.85;;;22.30;99.90;;;;;;5054259;28;20096;-75
2023/07/29 11:44:32;;;;;;;0.75;0.60;;;22.40;99.90;;;;;;5055255;28;20359;-79
2023/07/29 11:46:58;;;;;;;2.05;0.70;;;22.40;99.90;;;;;;5037817;28;20060;-78
2023/07/29 11:49:23;;;;;;;0.68;0.60;;;22.40;99.90;;;;;;5038078;28;20024;-78
2023/07/29 11:51:49;;;;;;;1.13;0.80;;;22.50;99.90;;;;;;5037918;28;20025;-78
2023/07/29 11:54:15;;;;;;;2.10;1.00;;;22.60;99.90;;;;;;5056192;28;20049;-78
2023/07/29 11:56:41;;;;;;;2.38;0.90;;;22.60;99.90;;;;;;5055731;28;20108;-79
2023/07/29 11:59:07;;;;;;;0.95;0.80;;;22.60;99.90;;;;;;5036439;28;20144;-76
2023/07/29 12:01:33;;;;;;;2.90;1.92;;;22.60;99.90;;;;;;5038935;28;20159;-78
2023/07/29 12:03:59;;;;;;;8.10;5.72;;;22.70;99.90;;;;;;5062162;28;20028;-77
2023/07/29 12:06:25;;;;;;;2.90;1.10;;;22.60;99.90;;;;;;5058606;28;20025;-78
2023/07/29 12:08:51;;;;;;;1.77;0.90;;;22.70;99.90;;;;;;5062545;28;20024;-78
2023/07/29 12:11:17;;;;;;;0.85;0.77;;;22.70;99.90;;;;;;5062281;28;20033;-76
2023/07/29 12:13:43;;;;;;;2.40;0.88;;;22.90;99.90;;;;;;5055109;28;20028;-77
2023/07/29 12:16:09;;;;;;;1.55;0.68;;;23.10;99.90;;;;;;5038627;28;20040;-78
2023/07/29 12:18:36;;;;;;;1.05;0.80;;;23.30;99.90;;;;;;5037146;28;20017;-78
2023/07/29 12:21:03;;;;;;;2.08;0.90;;;23.50;99.90;;;;;;5038696;28;20033;-79
2023/07/29 12:23:29;;;;;;;2.05;0.73;;;23.80;99.90;;;;;;5037555;28;20116;-79
2023/07/29 12:25:59;;;;;;;5.20;0.90;;;23.90;99.90;;;;;;5037695;28;20025;-84
2023/07/29 12:28:25;;;;;;;1.67;0.52;;;24.00;99.90;;;;;;5055137;28;20496;-80
2023/07/29 12:30:55;;;;;;;3.42;0.88;;;24.00;99.90;;;;;;5056031;28;20049;-80
2023/07/29 12:33:30;;;;;;;2.42;0.80;;;24.10;99.90;;;;;;5037097;28;20094;-76
2023/07/29 12:35:56;;;;;;;1.15;0.73;;;24.20;99.90;;;;;;5037053;28;20025;-76
2023/07/29 12:38:22;;;;;;;3.60;0.88;;;24.20;99.90;;;;;;5037945;28;20093;-78
2023/07/29 12:40:47;;;;;;;1.20;0.77;;;24.30;99.90;;;;;;5036126;28;20021;-79
2023/07/29 12:43:13;;;;;;;1.00;0.68;;;24.30;99.90;;;;;;5037050;28;20032;-78
2023/07/29 12:45:42;;;;;;;2.20;0.80;;;24.70;99.90;;;;;;5058641;28;20488;-72
2023/07/29 12:48:08;;;;;;;2.58;0.70;;;24.90;99.90;;;;;;5054577;28;20049;-86